KFOK/FOK METAR and TAF weather

Enter ICAO airport designator
Station Type Date Time Source
KFOK METAR 2020/01/20 15:53 UTC NOAA

KFOK 201553Z 35017G26KT 10SM CLR M04/M13 A3023 RMK AO2 PK WND 34028/1516 SLP237 T10391133


Station Type Date Time Source
KFOK Decoded METAR 2020/01/20 15:53 UTC NOAA

THE GABRESKI AIRPORT, NY, United States (KFOK) 40-51N 072-37W 33M
Jan 20, 2020 - 10:53 AM EST / 2020.01.20 1553 UTC
Wind: from the N (350 degrees) at 20 MPH (17 KT) gusting to 30 MPH (26 KT):0
Visibility: 10 mile(s):0
Sky conditions: clear
Temperature: 25.0 F (-3.9 C)
Windchill: 10 F (-12 C):1
Dew Point: 8.1 F (-13.3 C)
Relative Humidity: 47%
Pressure (altimeter): 30.23 in. Hg (1023 hPa)
ob: KFOK 201553Z 35017G26KT 10SM CLR M04/M13 A3023 RMK AO2 PK WND 34028/1516 SLP237 T10391133
cycle: 16

Station Type Date Time Source
KFOK TAF UTC NOAA

Error!

Example: see airport list